sensor_id;sensor_type;location;lat;lon;timestamp;pressure;altitude;pressure_sealevel;temperature;humidity
22862;BME280;11598;50.652;6.172;2023-06-04T10:08:02;96905.63;;;17.86;36.25
22862;BME280;11598;50.652;6.172;2023-06-04T10:18:04;96905.41;;;17.98;37.58
22862;BME280;11598;50.652;6.172;2023-06-04T10:28:06;96898.22;;;18.00;38.89
22862;BME280;11598;50.652;6.172;2023-06-04T10:38:11;96901.97;;;17.97;37.93
22862;BME280;11598;50.652;6.172;2023-06-04T10:48:13;96906.34;;;18.06;38.62
22862;BME280;11598;50.652;6.172;2023-06-04T10:58:15;96909.03;;;18.14;39.43
22862;BME280;11598;50.652;6.172;2023-06-04T11:08:26;96900.38;;;18.22;37.56
22862;BME280;11598;50.652;6.172;2023-06-04T11:18:28;96890.63;;;18.32;37.34
22862;BME280;11598;50.652;6.172;2023-06-04T11:28:29;96901.88;;;18.43;38.03
22862;BME280;11598;50.652;6.172;2023-06-04T11:38:29;96895.34;;;18.47;36.64
22862;BME280;11598;50.652;6.172;2023-06-04T11:48:30;96880.38;;;18.47;37.48
22862;BME280;11598;50.652;6.172;2023-06-04T11:58:31;96890.56;;;18.68;36.54
22862;BME280;11598;50.652;6.172;2023-06-04T12:08:32;96880.03;;;18.68;34.83
22862;BME280;11598;50.652;6.172;2023-06-04T12:18:33;96882.19;;;18.91;34.70
22862;BME280;11598;50.652;6.172;2023-06-04T12:28:33;96876.53;;;18.86;35.11
22862;BME280;11598;50.652;6.172;2023-06-04T12:38:35;96890.09;;;18.99;35.98
22862;BME280;11598;50.652;6.172;2023-06-04T12:48:36;96884.53;;;19.02;35.60
22862;BME280;11598;50.652;6.172;2023-06-04T12:58:36;96877.03;;;19.23;35.16
22862;BME280;11598;50.652;6.172;2023-06-04T13:08:37;96868.66;;;19.20;35.31
22862;BME280;11598;50.652;6.172;2023-06-04T13:18:37;96870.16;;;19.22;35.85
22862;BME280;11598;50.652;6.172;2023-06-04T13:28:38;96874.47;;;19.32;34.94
22862;BME280;11598;50.652;6.172;2023-06-04T13:38:39;96884.72;;;19.43;33.87
22862;BME280;11598;50.652;6.172;2023-06-04T13:48:41;96870.59;;;19.52;34.96
22862;BME280;11598;50.652;6.172;2023-06-04T13:58:41;96863.38;;;19.62;34.66
22862;BME280;11598;50.652;6.172;2023-06-04T14:08:42;96867.28;;;19.58;33.66
22862;BME280;11598;50.652;6.172;2023-06-04T14:18:42;96853.72;;;19.71;33.50
22862;BME280;11598;50.652;6.172;2023-06-04T14:28:43;96829.09;;;19.62;33.26
22862;BME280;11598;50.652;6.172;2023-06-04T14:38:44;96833.56;;;19.62;32.62
22862;BME280;11598;50.652;6.172;2023-06-04T14:48:44;96822.06;;;19.71;32.21
22862;BME280;11598;50.652;6.172;2023-06-04T14:58:45;96828.31;;;19.70;32.92
22862;BME280;11598;50.652;6.172;2023-06-04T15:08:45;96808.34;;;19.68;34.53
22862;BME280;11598;50.652;6.172;2023-06-04T15:18:46;96800.13;;;19.71;34.72
22862;BME280;11598;50.652;6.172;2023-06-04T15:28:46;96816.66;;;19.81;34.35
22862;BME280;11598;50.652;6.172;2023-06-04T15:38:48;96804.44;;;19.72;35.39
22862;BME280;11598;50.652;6.172;2023-06-04T15:48:48;96799.84;;;19.74;35.97
22862;BME280;11598;50.652;6.172;2023-06-04T15:58:48;96802.63;;;19.72;35.04
22862;BME280;11598;50.652;6.172;2023-06-04T16:08:49;96801.13;;;19.70;35.78
22862;BME280;11598;50.652;6.172;2023-06-04T16:18:50;96797.97;;;19.58;36.18
22862;BME280;11598;50.652;6.172;2023-06-04T16:28:50;96793.81;;;19.39;36.74
22862;BME280;11598;50.652;6.172;2023-06-04T16:38:50;96785.56;;;19.34;36.52
22862;BME280;11598;50.652;6.172;2023-06-04T16:48:51;96779.63;;;19.32;36.23
22862;BME280;11598;50.652;6.172;2023-06-04T16:58:52;96791.94;;;19.23;36.29
22862;BME280;11598;50.652;6.172;2023-06-04T17:08:52;96782.22;;;19.15;36.64
22862;BME280;11598;50.652;6.172;2023-06-04T17:18:53;96788.94;;;19.10;36.01
22862;BME280;11598;50.652;6.172;2023-06-04T17:28:53;96791.69;;;19.00;36.20
22862;BME280;11598;50.652;6.172;2023-06-04T17:38:53;96794.16;;;18.93;36.09
22862;BME280;11598;50.652;6.172;2023-06-04T17:48:54;96793.13;;;18.86;37.10
22862;BME280;11598;50.652;6.172;2023-06-04T17:58:54;96793.53;;;18.73;37.19
22862;BME280;11598;50.652;6.172;2023-06-04T18:08:54;96800.19;;;18.59;37.62
22862;BME280;11598;50.652;6.172;2023-06-04T18:18:56;96809.34;;;18.47;38.33
22862;BME280;11598;50.652;6.172;2023-06-04T18:28:56;96810.50;;;18.27;38.37
22862;BME280;11598;50.652;6.172;2023-06-04T18:38:56;96803.25;;;18.03;39.07
22862;BME280;11598;50.652;6.172;2023-06-04T18:48:57;96809.50;;;17.84;38.38
22862;BME280;11598;50.652;6.172;2023-06-04T18:58:59;96809.09;;;17.61;39.07
22862;BME280;11598;50.652;6.172;2023-06-04T19:09:00;96817.69;;;17.35;39.32
22862;BME280;11598;50.652;6.172;2023-06-04T19:19:01;96818.38;;;17.09;39.97
22862;BME280;11598;50.652;6.172;2023-06-04T19:29:01;96827.91;;;16.83;40.13
22862;BME280;11598;50.652;6.172;2023-06-04T19:39:02;96833.75;;;16.57;40.32
22862;BME280;11598;50.652;6.172;2023-06-04T19:49:02;96838.22;;;16.37;40.52
22862;BME280;11598;50.652;6.172;2023-06-04T19:59:02;96858.25;;;16.19;41.04
22862;BME280;11598;50.652;6.172;2023-06-04T20:09:03;96858.28;;;15.99;41.82
22862;BME280;11598;50.652;6.172;2023-06-04T20:19:04;96870.09;;;15.84;42.12
22862;BME280;11598;50.652;6.172;2023-06-04T20:29:05;96871.09;;;15.73;42.76
22862;BME280;11598;50.652;6.172;2023-06-04T20:39:05;96884.09;;;15.54;43.42
22862;BME280;11598;50.652;6.172;2023-06-04T20:49:05;96890.19;;;15.23;44.56
22862;BME280;11598;50.652;6.172;2023-06-04T20:59:06;96886.91;;;14.91;45.81
22862;BME280;11598;50.652;6.172;2023-06-04T21:09:06;96892.94;;;14.61;46.69
22862;BME280;11598;50.652;6.172;2023-06-04T21:19:07;96893.75;;;14.40;47.42
22862;BME280;11598;50.652;6.172;2023-06-04T21:29:07;96899.25;;;14.05;48.68
22862;BME280;11598;50.652;6.172;2023-06-04T21:39:08;96887.41;;;13.89;49.30
22862;BME280;11598;50.652;6.172;2023-06-04T21:49:08;96889.38;;;14.08;48.78
22862;BME280;11598;50.652;6.172;2023-06-04T21:59:09;96889.47;;;14.18;48.18
22862;BME280;11598;50.652;6.172;2023-06-04T22:09:09;96887.69;;;14.19;48.40
22862;BME280;11598;50.652;6.172;2023-06-04T22:19:10;96887.50;;;13.99;48.76
22862;BME280;11598;50.652;6.172;2023-06-04T22:29:10;96888.75;;;13.84;49.55
22862;BME280;11598;50.652;6.172;2023-06-04T22:39:11;96890.13;;;13.67;49.58
22862;BME280;11598;50.652;6.172;2023-06-04T22:49:11;96881.94;;;13.60;49.72
22862;BME280;11598;50.652;6.172;2023-06-04T22:59:11;96885.63;;;13.58;50.01
22862;BME280;11598;50.652;6.172;2023-06-04T23:09:12;96880.88;;;13.51;50.22
22862;BME280;11598;50.652;6.172;2023-06-04T23:19:14;96874.44;;;13.67;50.04
22862;BME280;11598;50.652;6.172;2023-06-04T23:29:14;96869.78;;;13.70;50.18
22862;BME280;11598;50.652;6.172;2023-06-04T23:39:15;96889.53;;;13.52;50.84
22862;BME280;11598;50.652;6.172;2023-06-04T23:49:15;96887.69;;;13.31;51.44
22862;BME280;11598;50.652;6.172;2023-06-04T23:59:15;96878.66;;;13.13;52.03
